Time;durP1;ratioP1;P1;durP2;ratioP2;P2;SDS_P1;SDS_P2;PMS_P1;PMS_P2;Temp;Humidity;BMP_temperature;BMP_pressure;BME280_temperature;BME280_humidity;BME280_pressure;Samples;Min_cycle;Max_cycle;Signal;HPM_P1;HPM_P2
2023/12/08 00:01:22;;;;;;;20.35;11.82;;;;;;;3.05;76.36;101472.81;7390315;19;20006;-70
2023/12/08 00:03:50;;;;;;;18.58;11.00;;;;;;;2.98;76.59;101479.13;7392601;19;20035;-71
2023/12/08 00:06:18;;;;;;;18.05;10.52;;;;;;;2.90;76.85;101474.13;7392343;19;20402;-70
2023/12/08 00:08:46;;;;;;;19.50;10.65;;;;;;;2.97;76.60;101473.94;7392385;19;20051;-69
2023/12/08 00:11:14;;;;;;;19.02;10.80;;;;;;;3.00;76.32;101461.63;7390423;19;20018;-69
2023/12/08 00:13:41;;;;;;;19.13;10.45;;;;;;;2.97;76.42;101456.47;7391802;19;20055;-70
2023/12/08 00:16:09;;;;;;;20.25;11.75;;;;;;;2.95;76.39;101454.81;7392118;19;20023;-69
2023/12/08 00:18:37;;;;;;;17.52;10.10;;;;;;;2.98;76.19;101452.09;7390465;19;20031;-69
2023/12/08 00:21:05;;;;;;;19.55;10.65;;;;;;;3.03;75.77;101442.34;7388003;19;20021;-70
2023/12/08 00:23:34;;;;;;;17.42;10.68;;;;;;;3.01;75.80;101433.69;7391117;19;20094;-69
2023/12/08 00:26:02;;;;;;;19.02;10.15;;;;;;;2.97;76.21;101442.53;7390257;19;20070;-69
2023/12/08 00:28:30;;;;;;;16.65;9.98;;;;;;;2.96;75.97;101430.38;7390346;19;20034;-69
2023/12/08 00:30:58;;;;;;;18.90;10.43;;;;;;;3.06;75.41;101421.34;7388284;19;20027;-69
2023/12/08 00:33:26;;;;;;;17.65;10.35;;;;;;;3.11;74.99;101419.41;7391003;19;20040;-66
2023/12/08 00:35:54;;;;;;;18.13;9.93;;;;;;;2.96;75.48;101414.69;7391689;19;20022;-68
2023/12/08 00:38:22;;;;;;;16.00;9.25;;;;;;;2.94;75.41;101406.88;7391285;19;20086;-67
2023/12/08 00:40:50;;;;;;;15.98;9.18;;;;;;;2.97;75.28;101383.22;7389349;19;20025;-68
2023/12/08 00:43:18;;;;;;;17.08;10.23;;;;;;;3.05;75.09;101389.09;7391393;19;20015;-68
2023/12/08 00:45:46;;;;;;;18.10;9.63;;;;;;;2.95;75.37;101379.81;7391013;19;20019;-69
2023/12/08 00:48:13;;;;;;;15.27;9.32;;;;;;;3.06;74.85;101376.88;7390985;19;20010;-68
2023/12/08 00:50:41;;;;;;;17.45;9.45;;;;;;;3.12;74.55;101376.63;7389834;19;20026;-70
2023/12/08 00:53:09;;;;;;;15.85;8.85;;;;;;;3.06;74.70;101374.25;7391263;19;20015;-67
2023/12/08 00:55:37;;;;;;;16.23;8.57;;;;;;;3.06;74.53;101372.47;7391782;19;20364;-67
2023/12/08 00:58:06;;;;;;;15.93;8.73;;;;;;;3.06;74.32;101363.78;7391118;19;20040;-70
2023/12/08 01:00:33;;;;;;;14.98;8.93;;;;;;;3.07;74.34;101368.09;7389817;19;20490;-70
2023/12/08 01:03:02;;;;;;;14.77;8.57;;;;;;;2.91;74.36;101359.91;7389259;19;20018;-67
2023/12/08 01:05:30;;;;;;;15.98;9.00;;;;;;;2.95;74.50;101355.44;7389481;19;20074;-68
2023/12/08 01:07:58;;;;;;;14.70;8.55;;;;;;;3.03;74.15;101348.19;7391079;19;20022;-67
2023/12/08 01:10:25;;;;;;;15.55;8.65;;;;;;;2.90;74.24;101352.94;7389080;19;20033;-67
2023/12/08 01:12:53;;;;;;;14.45;8.52;;;;;;;3.05;73.91;101343.72;7390436;19;20589;-68
2023/12/08 01:15:21;;;;;;;12.80;7.78;;;;;;;3.03;73.84;101330.72;7390226;19;20035;-67
2023/12/08 01:17:49;;;;;;;15.20;8.10;;;;;;;3.04;73.67;101328.94;7389230;19;20021;-66
2023/12/08 01:20:17;;;;;;;13.85;7.80;;;;;;;3.02;73.06;101325.53;7388875;19;20029;-67
2023/12/08 01:22:45;;;;;;;16.67;8.80;;;;;;;3.08;73.54;101307.00;7388525;19;20014;-67
2023/12/08 01:25:13;;;;;;;14.38;7.70;;;;;;;3.07;73.69;101303.53;7388356;19;20010;-67
2023/12/08 01:27:41;;;;;;;13.27;7.30;;;;;;;3.06;73.12;101291.38;7388584;19;20041;-66
2023/12/08 01:30:09;;;;;;;12.98;7.93;;;;;;;3.07;73.65;101277.38;7389119;19;20038;-66
2023/12/08 01:32:40;;;;;;;13.13;7.25;;;;;;;3.11;73.08;101285.97;7390217;19;20010;-66
2023/12/08 01:35:08;;;;;;;13.90;7.38;;;;;;;3.20;72.78;101279.56;7388737;19;20417;-66
2023/12/08 01:37:36;;;;;;;13.27;7.80;;;;;;;3.05;73.17;101278.31;7397258;19;20099;-66
2023/12/08 01:40:06;;;;;;;13.80;8.07;;;;;;;3.01;73.42;101269.72;7395738;19;20102;-66
2023/12/08 01:42:34;;;;;;;12.85;7.32;;;;;;;3.01;73.08;101274.97;7396549;19;20379;-66
2023/12/08 01:45:03;;;;;;;12.85;7.65;;;;;;;3.03;72.96;101273.16;7397160;19;20487;-65
2023/12/08 01:47:31;;;;;;;14.15;7.85;;;;;;;3.11;72.99;101284.22;7395089;19;20051;-65
2023/12/08 01:49:59;;;;;;;14.63;8.18;;;;;;;3.05;72.75;101276.59;7395576;19;20011;-66
2023/12/08 01:52:27;;;;;;;12.80;7.47;;;;;;;2.99;73.16;101263.72;7396298;19;20390;-66
2023/12/08 01:54:59;;;;;;;14.90;7.53;;;;;;;2.96;72.43;101255.97;7395977;19;20082;-65
2023/12/08 01:57:27;;;;;;;12.75;7.47;;;;;;;2.97;72.98;101260.28;7396235;19;20047;-65
2023/12/08 01:59:56;;;;;;;14.40;7.68;;;;;;;2.99;72.61;101268.09;7395060;19;20018;-65
2023/12/08 02:02:25;;;;;;;14.43;7.82;;;;;;;3.11;72.23;101259.81;7394671;19;20118;-65
2023/12/08 02:04:57;;;;;;;13.07;7.25;;;;;;;3.08;72.46;101260.75;7396078;19;20011;-65
2023/12/08 02:07:26;;;;;;;14.77;7.68;;;;;;;3.05;72.38;101252.16;7395823;19;20025;-65
2023/12/08 02:09:54;;;;;;;11.95;6.82;;;;;;;3.01;72.26;101251.41;7393143;19;20015;-65
2023/12/08 02:12:22;;;;;;;14.02;8.13;;;;;;;2.97;72.55;101249.81;7396083;19;20039;-65
2023/12/08 02:14:52;;;;;;;13.32;7.10;;;;;;;2.92;72.58;101254.34;7394321;19;20022;-65
2023/12/08 02:17:24;;;;;;;13.18;6.95;;;;;;;2.99;72.06;101242.78;7395981;19;20029;-65
2023/12/08 02:19:53;;;;;;;11.68;7.10;;;;;;;3.11;71.73;101246.72;7392644;19;20014;-64
2023/12/08 02:22:25;;;;;;;13.50;7.63;;;;;;;3.10;72.00;101247.66;7393985;19;20038;-64
2023/12/08 02:24:53;;;;;;;13.23;7.28;;;;;;;3.04;71.53;101246.09;7395658;19;20078;-64
2023/12/08 02:27:21;;;;;;;12.82;7.25;;;;;;;2.90;72.24;101230.00;7395008;19;20031;-65
2023/12/08 02:29:49;;;;;;;13.57;6.68;;;;;;;2.95;72.04;101217.63;7394271;19;20043;-65
2023/12/08 02:32:45;;;;;;;13.93;7.28;;;;;;;2.96;71.05;101205.41;7393409;19;20524;-65
2023/12/08 02:35:16;;;;;;;13.05;7.43;;;;;;;2.97;71.75;101191.41;7393606;19;20031;-66
2023/12/08 02:37:47;;;;;;;13.25;6.78;;;;;;;2.92;72.02;101195.03;7395453;19;20039;-70
2023/12/08 02:40:15;;;;;;;14.25;6.82;;;;;;;3.00;71.36;101188.69;7393982;19;20018;-70
2023/12/08 02:42:43;;;;;;;10.95;6.53;;;;;;;2.97;70.90;101187.03;7393969;19;20086;-70
2023/12/08 02:45:11;;;;;;;12.25;6.72;;;;;;;2.84;71.59;101178.78;7395439;19;20085;-70
2023/12/08 02:47:39;;;;;;;11.52;6.55;;;;;;;2.89;71.23;101182.06;7394153;19;20018;-70
2023/12/08 02:50:07;;;;;;;12.85;6.97;;;;;;;2.98;71.00;101194.00;7392411;19;20022;-70
2023/12/08 02:52:35;;;;;;;12.85;6.68;;;;;;;2.91;71.35;101195.13;7394995;19;20369;-70
2023/12/08 02:55:03;;;;;;;11.77;6.40;;;;;;;3.05;70.92;101190.25;7394682;19;20018;-71
2023/12/08 02:57:31;;;;;;;12.25;6.70;;;;;;;3.10;70.92;101190.09;7394813;19;20018;-71
2023/12/08 02:59:59;;;;;;;13.70;7.00;;;;;;;3.19;70.87;101208.06;7394791;19;20769;-71
2023/12/08 03:02:28;;;;;;;11.85;6.40;;;;;;;3.15;70.77;101199.47;7394872;19;20442;-71
2023/12/08 03:04:56;;;;;;;12.68;6.97;;;;;;;3.01;70.73;101193.00;7396531;19;20014;-70
2023/12/08 03:07:24;;;;;;;12.43;6.80;;;;;;;3.06;71.30;101185.88;7395873;19;20039;-71
2023/12/08 03:09:52;;;;;;;11.50;6.43;;;;;;;2.96;71.16;101189.72;7393786;19;20500;-71
2023/12/08 03:12:20;;;;;;;11.98;6.20;;;;;;;2.99;71.02;101192.22;7395450;19;20043;-71
2023/12/08 03:14:48;;;;;;;12.88;6.95;;;;;;;3.04;70.90;101178.06;7395362;19;20018;-71
2023/12/08 03:17:16;;;;;;;12.35;6.70;;;;;;;3.04;70.65;101175.44;7394950;19;20027;-71
2023/12/08 03:19:43;;;;;;;12.18;6.70;;;;;;;3.02;70.69;101164.19;7393722;19;20018;-71
2023/12/08 03:22:12;;;;;;;11.27;6.47;;;;;;;3.10;70.53;101171.78;7391892;19;20023;-71
2023/12/08 03:24:40;;;;;;;11.45;6.38;;;;;;;3.13;69.85;101155.97;7396023;19;20022;-71
2023/12/08 03:27:08;;;;;;;12.38;7.00;;;;;;;3.13;70.39;101164.66;7391934;19;20043;-72
2023/12/08 03:29:40;;;;;;;10.88;5.65;;;;;;;3.13;70.34;101153.34;7393043;19;20047;-66
2023/12/08 03:32:08;;;;;;;11.18;6.65;;;;;;;3.01;70.13;101157.25;7393456;19;20015;-66
2023/12/08 03:34:37;;;;;;;11.57;6.20;;;;;;;2.96;70.59;101140.00;7391610;19;20475;-66
2023/12/08 03:37:05;;;;;;;12.15;6.60;;;;;;;2.91;70.29;101143.66;7393824;19;20026;-66
2023/12/08 03:39:33;;;;;;;13.38;6.80;;;;;;;2.92;70.58;101142.72;7392941;19;20377;-66
2023/12/08 03:42:01;;;;;;;11.52;6.18;;;;;;;2.80;70.83;101142.31;7391495;19;20055;-69
2023/12/08 03:44:29;;;;;;;11.93;6.55;;;;;;;2.81;71.05;101159.72;7393508;19;20023;-72
2023/12/08 03:46:56;;;;;;;11.18;6.18;;;;;;;2.96;70.63;101153.09;7392801;19;20026;-74
2023/12/08 03:49:24;;;;;;;10.68;5.80;;;;;;;2.96;70.50;101147.88;7392788;19;20019;-66
2023/12/08 03:51:52;;;;;;;11.57;6.68;;;;;;;3.07;70.46;101123.03;7392548;19;20010;-66
2023/12/08 03:54:20;;;;;;;11.63;6.47;;;;;;;3.06;70.17;101125.69;7392504;19;20046;-65
2023/12/08 03:56:48;;;;;;;12.77;6.80;;;;;;;3.08;70.39;101119.47;7392623;19;20010;-65
2023/12/08 03:59:16;;;;;;;11.48;6.78;;;;;;;3.11;70.07;101131.59;7389531;19;20385;-67
2023/12/08 04:01:44;;;;;;;11.07;6.63;;;;;;;3.10;70.38;101130.75;7390389;19;20030;-67
2023/12/08 04:04:12;;;;;;;12.00;6.47;;;;;;;3.06;70.39;101116.09;7392164;19;20434;-67
2023/12/08 04:06:56;;;;;;;10.93;6.22;;;;;;;3.03;70.67;101129.28;7391509;19;20383;-66
2023/12/08 04:09:24;;;;;;;12.13;6.88;;;;;;;3.06;70.83;101133.56;7392214;19;20026;-67
2023/12/08 04:11:56;;;;;;;12.15;6.57;;;;;;;3.07;70.62;101124.78;7391529;19;20014;-68
2023/12/08 04:14:23;;;;;;;13.27;6.97;;;;;;;3.09;70.65;101139.53;7391193;19;20669;-70
2023/12/08 04:16:51;;;;;;;12.20;6.70;;;;;;;3.08;70.44;101127.34;7391972;19;20006;-69
2023/12/08 04:19:20;;;;;;;12.48;7.07;;;;;;;3.01;70.70;101132.84;7391848;19;20015;-69
2023/12/08 04:21:48;;;;;;;12.48;6.95;;;;;;;2.97;70.78;101134.72;7389419;19;20015;-69
2023/12/08 04:24:16;;;;;;;11.65;6.90;;;;;;;3.04;70.15;101132.75;7391965;19;20019;-70
2023/12/08 04:26:44;;;;;;;13.32;7.47;;;;;;;3.05;70.39;101135.31;7392003;19;20496;-69
2023/12/08 04:29:12;;;;;;;12.52;7.22;;;;;;;3.11;70.21;101139.47;7390252;19;20417;-69
2023/12/08 04:31:40;;;;;;;10.63;6.25;;;;;;;3.09;70.15;101131.69;7388445;19;20018;-70
2023/12/08 04:34:08;;;;;;;12.95;7.22;;;;;;;2.99;70.48;101137.28;7391808;19;20456;-69
2023/12/08 04:36:36;;;;;;;11.32;6.78;;;;;;;2.95;70.62;101126.09;7391783;19;20022;-69
2023/12/08 04:39:04;;;;;;;11.90;7.18;;;;;;;3.06;70.48;101130.94;7391354;19;20015;-71
2023/12/08 04:41:32;;;;;;;13.48;7.85;;;;;;;3.07;70.45;101135.25;7388743;19;20025;-71
2023/12/08 04:44:00;;;;;;;12.50;7.07;;;;;;;3.13;70.17;101129.81;7391297;19;20018;-70
2023/12/08 04:46:28;;;;;;;12.95;7.25;;;;;;;3.11;70.13;101134.22;7391252;19;20081;-70
2023/12/08 04:48:56;;;;;;;15.15;7.88;;;;;;;2.92;70.48;101127.03;7391510;19;20501;-67
2023/12/08 04:51:24;;;;;;;13.70;7.57;;;;;;;2.97;70.93;101131.25;7388631;19;20011;-67
2023/12/08 04:53:58;;;;;;;12.20;7.38;;;;;;;2.82;70.30;101119.56;7391117;19;20047;-68
2023/12/08 04:56:25;;;;;;;12.98;7.20;;;;;;;2.81;71.14;101129.19;7391155;19;20018;-68
2023/12/08 04:58:53;;;;;;;14.60;7.95;;;;;;;2.82;70.35;101132.66;7390815;19;20022;-68
2023/12/08 05:01:22;;;;;;;13.82;7.90;;;;;;;2.98;70.53;101122.50;7388330;19;20074;-68
2023/12/08 05:03:50;;;;;;;14.48;7.90;;;;;;;2.93;70.33;101120.91;7389648;19;20015;-68
2023/12/08 05:06:22;;;;;;;14.35;7.57;;;;;;;3.01;70.18;101114.53;7390878;19;20015;-68
2023/12/08 05:08:50;;;;;;;14.05;7.95;;;;;;;2.84;70.69;101120.38;7389556;19;20507;-69
2023/12/08 05:11:18;;;;;;;15.07;8.45;;;;;;;2.90;70.64;101118.41;7395065;19;20026;-68
2023/12/08 05:13:46;;;;;;;13.55;7.63;;;;;;;2.94;70.66;101121.78;7397948;19;20015;-68
2023/12/08 05:16:15;;;;;;;13.85;7.80;;;;;;;2.85;70.79;101119.47;7398300;19;20018;-68
2023/12/08 05:18:43;;;;;;;14.52;8.23;;;;;;;2.93;70.83;101117.44;7396585;19;20051;-69
2023/12/08 05:21:11;;;;;;;14.30;7.85;;;;;;;2.95;70.77;101112.16;7393530;19;20014;-69
2023/12/08 05:23:39;;;;;;;14.63;8.40;;;;;;;2.97;70.79;101113.78;7397857;19;20022;-69
2023/12/08 05:26:07;;;;;;;12.65;7.85;;;;;;;3.03;70.72;101099.66;7397808;19;20090;-69
2023/12/08 05:28:35;;;;;;;15.00;8.48;;;;;;;3.00;70.60;101105.00;7396089;19;20035;-69
2023/12/08 05:31:04;;;;;;;15.38;8.70;;;;;;;3.04;70.41;101104.81;7395587;19;20018;-69
2023/12/08 05:33:32;;;;;;;15.20;8.32;;;;;;;3.10;70.68;101095.91;7397094;19;20074;-69
2023/12/08 05:36:00;;;;;;;14.50;8.77;;;;;;;3.14;70.54;101097.50;7397325;19;20044;-68
2023/12/08 05:38:31;;;;;;;14.40;8.80;;;;;;;3.11;70.59;101093.22;7397302;19;20034;-69
2023/12/08 05:40:59;;;;;;;15.73;8.77;;;;;;;3.03;70.75;101091.81;7394950;19;20026;-69
2023/12/08 05:43:28;;;;;;;15.88;9.18;;;;;;;2.93;70.83;101084.28;7396677;19;20409;-68
2023/12/08 05:45:55;;;;;;;15.60;9.20;;;;;;;2.97;70.99;101069.31;7397397;19;20023;-68
2023/12/08 05:48:23;;;;;;;15.48;8.88;;;;;;;2.83;70.72;101076.84;7396392;19;20029;-68
2023/12/08 05:50:51;;;;;;;13.57;8.25;;;;;;;2.77;71.11;101072.69;7394589;19;20029;-68
2023/12/08 05:53:19;;;;;;;14.88;8.52;;;;;;;2.85;71.33;101083.69;7397071;19;20026;-68
2023/12/08 05:55:47;;;;;;;14.60;8.90;;;;;;;2.81;71.36;101074.25;7396527;19;20010;-68
2023/12/08 05:58:15;;;;;;;13.35;8.55;;;;;;;2.88;70.91;101088.84;7395115;19;20359;-68
2023/12/08 06:00:43;;;;;;;17.00;9.70;;;;;;;2.87;71.46;101081.06;7394076;19;20507;-71
2023/12/08 06:03:10;;;;;;;19.38;9.55;;;;;;;2.90;70.89;101081.78;7392358;19;20482;-71
2023/12/08 06:05:38;;;;;;;16.50;8.85;;;;;;;2.88;71.27;101078.38;7396211;19;20022;-71
2023/12/08 06:08:06;;;;;;;13.75;8.25;;;;;;;2.99;70.57;101075.38;7396609;19;20018;-71
2023/12/08 06:10:34;;;;;;;16.05;8.65;;;;;;;3.00;70.54;101081.44;7394558;19;20529;-70
2023/12/08 06:13:02;;;;;;;17.02;9.50;;;;;;;3.04;70.69;101072.56;7395874;19;20356;-70
2023/12/08 06:15:30;;;;;;;16.13;8.82;;;;;;;3.04;70.37;101081.28;7395698;19;20022;-73
2023/12/08 06:17:57;;;;;;;17.92;9.35;;;;;;;2.97;70.90;101073.72;7395909;19;20022;-71
2023/12/08 06:20:25;;;;;;;14.88;9.27;;;;;;;3.02;70.94;101066.56;7394215;19;20488;-72
2023/12/08 06:22:53;;;;;;;16.02;8.75;;;;;;;3.11;70.96;101066.19;7392689;19;20035;-72
2023/12/08 06:25:21;;;;;;;14.65;8.35;;;;;;;3.13;70.63;101061.78;7395994;19;20022;-70
2023/12/08 06:27:49;;;;;;;14.43;8.23;;;;;;;3.14;70.38;101061.72;7395556;19;20043;-73
2023/12/08 06:30:17;;;;;;;16.20;8.45;;;;;;;3.08;70.56;101048.00;7392871;19;20029;-73
2023/12/08 06:32:45;;;;;;;15.02;9.25;;;;;;;3.00;69.95;101053.53;7394010;19;20130;-73
2023/12/08 06:35:13;;;;;;;15.40;8.45;;;;;;;3.02;70.78;101043.03;7395840;19;20029;-73
2023/12/08 06:37:41;;;;;;;15.00;9.23;;;;;;;2.99;70.70;101053.59;7394621;19;20082;-73
2023/12/08 06:40:10;;;;;;;15.23;8.80;;;;;;;2.87;70.93;101057.50;7392412;19;20033;-69
2023/12/08 06:42:38;;;;;;;14.85;9.13;;;;;;;2.95;70.96;101058.09;7393897;19;20018;-69
2023/12/08 06:45:07;;;;;;;14.50;9.23;;;;;;;3.09;70.35;101058.44;7395419;19;20029;-69
2023/12/08 06:47:36;;;;;;;14.98;9.45;;;;;;;3.12;70.25;101058.28;7395600;19;20043;-67
2023/12/08 06:50:04;;;;;;;16.52;9.50;;;;;;;3.02;70.53;101059.56;7391933;19;20051;-67
2023/12/08 06:52:32;;;;;;;18.75;9.18;;;;;;;3.09;70.80;101058.44;7394825;19;20017;-67
2023/12/08 06:55:00;;;;;;;16.35;9.18;;;;;;;3.16;70.61;101054.63;7393117;19;20019;-66
2023/12/08 06:57:29;;;;;;;15.60;9.35;;;;;;;3.27;69.91;101046.38;7394161;19;20043;-66
2023/12/08 06:59:57;;;;;;;14.35;8.68;;;;;;;3.22;70.09;101043.09;7391797;19;20376;-66
2023/12/08 07:02:28;;;;;;;15.57;8.98;;;;;;;3.02;70.40;101048.25;7392876;19;20022;-66
2023/12/08 07:04:56;;;;;;;15.88;9.20;;;;;;;3.16;70.49;101045.94;7394052;19;20092;-66
2023/12/08 07:07:24;;;;;;;17.00;9.77;;;;;;;3.01;70.72;101033.44;7392872;19;20022;-66
2023/12/08 07:09:52;;;;;;;17.02;9.75;;;;;;;3.07;70.59;101043.69;7393426;19;20497;-66
2023/12/08 07:12:20;;;;;;;17.65;9.35;;;;;;;3.10;71.02;101031.34;7394781;19;20015;-66
2023/12/08 07:14:50;;;;;;;16.65;9.18;;;;;;;3.13;70.87;101041.69;7392169;19;20500;-71
2023/12/08 07:17:18;;;;;;;16.63;9.50;;;;;;;3.23;70.67;101044.78;7393879;19;20543;-72
2023/12/08 07:19:46;;;;;;;16.30;9.70;;;;;;;3.13;70.70;101041.69;7393198;19;20026;-72
2023/12/08 07:22:14;;;;;;;17.77;9.57;;;;;;;3.12;71.13;101042.59;7393140;19;20025;-72
2023/12/08 07:24:43;;;;;;;15.13;9.32;;;;;;;3.06;71.27;101044.59;7393658;19;20018;-72
2023/12/08 07:27:10;;;;;;;16.63;9.18;;;;;;;3.08;71.24;101042.75;7393720;19;20018;-72
2023/12/08 07:29:39;;;;;;;16.88;9.77;;;;;;;3.06;71.50;101045.44;7392991;19;20022;-73
2023/12/08 07:32:07;;;;;;;15.30;9.25;;;;;;;3.13;71.74;101033.84;7393028;19;20014;-73
2023/12/08 07:34:35;;;;;;;16.85;10.30;;;;;;;3.27;71.37;101035.91;7393593;19;20489;-70
2023/12/08 07:37:03;;;;;;;18.67;9.82;;;;;;;3.01;72.16;101047.38;7391977;19;20022;-71
2023/12/08 07:39:31;;;;;;;16.20;9.70;;;;;;;3.01;72.54;101055.22;7393217;19;20023;-70
2023/12/08 07:41:59;;;;;;;18.95;10.13;;;;;;;2.94;72.59;101051.16;7392363;19;20019;-70
2023/12/08 07:44:28;;;;;;;16.40;9.93;;;;;;;2.90;72.89;101046.91;7391742;19;20022;-72
2023/12/08 07:46:56;;;;;;;16.88;9.75;;;;;;;2.95;72.64;101042.38;7392540;19;20014;-72
2023/12/08 07:49:24;;;;;;;16.70;9.98;;;;;;;2.99;72.80;101041.34;7392827;19;20018;-72
2023/12/08 07:51:52;;;;;;;17.13;10.38;;;;;;;2.99;73.04;101049.22;7392497;19;20386;-73
2023/12/08 07:54:20;;;;;;;18.08;10.57;;;;;;;2.92;73.47;101048.56;7393225;19;20018;-72
2023/12/08 07:56:48;;;;;;;16.73;9.77;;;;;;;3.06;73.51;101058.53;7392521;19;20559;-70
2023/12/08 07:59:16;;;;;;;17.83;10.65;;;;;;;2.85;74.58;101056.72;7392481;19;20036;-70
2023/12/08 08:01:44;;;;;;;17.77;10.15;;;;;;;2.98;74.63;101054.47;7389915;19;20119;-73
2023/12/08 08:04:14;;;;;;;17.70;10.52;;;;;;;3.01;74.46;101056.97;7390999;19;20031;-72
2023/12/08 08:06:42;;;;;;;17.50;10.50;;;;;;;3.01;74.63;101060.44;7392300;19;20500;-72
2023/12/08 08:09:11;;;;;;;16.15;9.30;;;;;;;3.02;74.79;101056.94;7391334;19;20039;-71
2023/12/08 08:11:39;;;;;;;18.92;10.20;;;;;;;2.86;75.50;101048.81;7389528;19;20384;-71
2023/12/08 08:14:07;;;;;;;16.45;10.13;;;;;;;2.96;75.44;101048.47;7392450;19;20047;-73
2023/12/08 08:16:35;;;;;;;19.15;11.20;;;;;;;2.63;77.17;101044.44;7392380;19;20022;-73
2023/12/08 08:19:02;;;;;;;19.05;10.98;;;;;;;2.81;76.69;101044.66;7392095;19;20371;-71
2023/12/08 08:21:30;;;;;;;18.50;10.07;;;;;;;2.88;76.85;101030.44;7389853;19;20513;-71
2023/12/08 08:23:58;;;;;;;19.10;10.80;;;;;;;2.87;76.62;101034.81;7390382;19;20028;-70
2023/12/08 08:26:27;;;;;;;18.55;10.95;;;;;;;2.98;76.32;101039.66;7390585;19;20006;-71
2023/12/08 08:28:54;;;;;;;16.38;10.45;;;;;;;3.00;76.39;101029.97;7390371;19;20070;-74
2023/12/08 08:31:22;;;;;;;18.58;9.82;;;;;;;2.95;76.39;101037.16;7390079;19;20060;-74
2023/12/08 08:33:50;;;;;;;19.33;10.27;;;;;;;2.94;76.72;101040.69;7390655;19;20031;-74
2023/12/08 08:36:18;;;;;;;17.25;10.30;;;;;;;3.00;76.27;101036.97;7391998;19;20019;-70
2023/12/08 08:38:46;;;;;;;16.92;10.25;;;;;;;2.97;77.20;101034.47;7391410;19;20105;-69
2023/12/08 08:41:14;;;;;;;16.75;10.25;;;;;;;3.07;76.68;101041.91;7389082;19;20381;-69
2023/12/08 08:43:42;;;;;;;16.92;10.27;;;;;;;3.12;76.49;101039.97;7389564;19;20352;-69
2023/12/08 08:46:10;;;;;;;17.48;10.75;;;;;;;3.13;76.67;101043.47;7398186;19;20367;-69
2023/12/08 08:48:38;;;;;;;17.67;9.77;;;;;;;3.18;76.73;101038.91;7399192;19;20487;-68
2023/12/08 08:51:06;;;;;;;16.90;10.20;;;;;;;3.07;76.81;101044.53;7396070;19;20034;-68
2023/12/08 08:53:35;;;;;;;17.30;9.95;;;;;;;3.10;77.27;101052.28;7398569;19;20030;-68
2023/12/08 08:56:03;;;;;;;16.67;10.13;;;;;;;3.07;77.25;101049.75;7398837;19;20015;-68
2023/12/08 08:58:32;;;;;;;17.35;10.15;;;;;;;3.03;77.88;101050.78;7396944;19;20043;-68
2023/12/08 09:01:01;;;;;;;19.45;11.07;;;;;;;2.96;77.59;101045.84;7390978;19;20022;-68
2023/12/08 09:03:29;;;;;;;17.23;10.85;;;;;;;2.90;78.71;101055.66;7396760;19;20026;-68
2023/12/08 09:05:57;;;;;;;19.33;11.40;;;;;;;3.00;78.69;101063.97;7397925;19;20022;-68
2023/12/08 09:08:25;;;;;;;16.60;10.15;;;;;;;3.04;78.38;101065.56;7396392;19;20108;-68
2023/12/08 09:10:54;;;;;;;18.63;10.65;;;;;;;2.88;78.55;101059.22;7395982;19;20047;-68
2023/12/08 09:13:22;;;;;;;17.27;10.23;;;;;;;2.72;78.59;101058.06;7398928;19;20022;-68
2023/12/08 09:15:51;;;;;;;17.98;10.68;;;;;;;2.74;79.04;101064.09;7398311;19;20081;-68
2023/12/08 09:18:19;;;;;;;17.63;10.68;;;;;;;2.81;79.23;101062.97;7398375;19;20018;-68
2023/12/08 09:20:47;;;;;;;16.98;9.95;;;;;;;2.72;79.52;101064.16;7396490;19;20019;-68
2023/12/08 09:23:15;;;;;;;17.90;11.00;;;;;;;2.89;79.21;101074.84;7397948;19;20023;-68
2023/12/08 09:25:43;;;;;;;15.73;9.93;;;;;;;3.00;79.06;101057.91;7398593;19;20042;-69
2023/12/08 09:28:11;;;;;;;17.17;10.00;;;;;;;3.04;78.82;101062.09;7397915;19;20022;-68
2023/12/08 09:30:39;;;;;;;16.42;9.65;;;;;;;3.14;78.83;101059.09;7396571;19;20034;-68
2023/12/08 09:33:09;;;;;;;17.27;10.18;;;;;;;3.05;78.25;101048.09;7396663;19;20014;-69
2023/12/08 09:35:37;;;;;;;16.30;9.68;;;;;;;3.03;78.83;101050.78;7395973;19;20441;-68
2023/12/08 09:38:05;;;;;;;15.70;9.98;;;;;;;2.90;79.06;101050.41;7397293;19;20014;-68
2023/12/08 09:40:37;;;;;;;17.05;10.10;;;;;;;2.88;79.44;101060.06;7395632;19;20029;-68
2023/12/08 09:43:21;;;;;;;15.65;9.52;;;;;;;2.93;78.66;101059.88;7394655;19;20018;-69
2023/12/08 09:45:50;;;;;;;16.30;10.10;;;;;;;2.78;79.60;101056.06;7395150;19;20018;-68
2023/12/08 09:48:21;;;;;;;18.25;10.43;;;;;;;2.95;79.38;101057.22;7395372;19;20019;-68
2023/12/08 09:50:51;;;;;;;16.48;9.35;;;;;;;2.99;79.20;101059.66;7393152;19;20026;-68
2023/12/08 09:53:20;;;;;;;15.95;9.73;;;;;;;3.08;78.80;101061.06;7396506;19;20029;-68
2023/12/08 09:55:48;;;;;;;18.75;10.20;;;;;;;3.02;78.90;101064.78;7394842;19;20027;-70
2023/12/08 09:58:17;;;;;;;16.08;9.50;;;;;;;3.08;78.61;101059.31;7395780;19;20046;-68
2023/12/08 10:00:46;;;;;;;16.48;9.82;;;;;;;3.02;78.73;101043.03;7394728;19;20089;-67
2023/12/08 10:03:17;;;;;;;16.48;10.02;;;;;;;3.23;78.38;101039.56;7394174;19;20023;-68
2023/12/08 10:05:45;;;;;;;17.73;10.13;;;;;;;3.30;77.82;101027.94;7395882;19;20018;-69
2023/12/08 10:08:14;;;;;;;15.68;9.50;;;;;;;3.26;78.49;101035.97;7397127;19;20033;-69
2023/12/08 10:10:42;;;;;;;14.55;8.88;;;;;;;3.21;78.40;101032.72;7394139;19;20035;-68
2023/12/08 10:13:10;;;;;;;15.63;9.45;;;;;;;3.29;78.03;101030.63;7394520;19;20018;-69
2023/12/08 10:15:43;;;;;;;15.65;9.27;;;;;;;3.39;77.37;101014.47;7396096;19;20086;-68
2023/12/08 10:18:27;;;;;;;16.50;9.48;;;;;;;3.34;77.26;100994.66;7396081;19;20036;-69
2023/12/08 10:21:15;;;;;;;;;;;;;;;3.26;77.96;100989.72;7394237;19;20486;-68
2023/12/08 10:23:44;;;;;;;15.50;8.60;;;;;;;3.25;78.10;100990.66;7394649;19;19933;-68
2023/12/08 10:26:13;;;;;;;16.67;9.43;;;;;;;3.29;77.42;100980.91;7395661;19;20019;-67
2023/12/08 10:28:42;;;;;;;16.05;8.75;;;;;;;3.36;77.09;100990.22;7395561;19;20014;-68
2023/12/08 10:31:09;;;;;;;14.82;8.63;;;;;;;3.48;76.80;100987.09;7393059;19;20019;-69
2023/12/08 10:33:40;;;;;;;21.20;11.98;;;;;;;3.33;76.88;100993.81;7395190;19;20011;-69
2023/12/08 10:36:08;;;;;;;20.40;12.75;;;;;;;3.34;77.44;100999.91;7395698;19;20633;-69
2023/12/08 10:38:36;;;;;;;17.23;10.27;;;;;;;3.34;77.66;101002.50;7393696;19;20446;-69
2023/12/08 10:41:04;;;;;;;19.88;11.82;;;;;;;3.29;77.09;100999.22;7393086;19;20026;-69
2023/12/08 10:43:32;;;;;;;25.83;14.13;;;;;;;3.33;77.29;101001.66;7392762;19;20035;-69
2023/12/08 10:46:00;;;;;;;26.40;21.40;;;;;;;3.22;77.43;101010.84;7393489;19;20022;-69
2023/12/08 10:48:29;;;;;;;19.15;11.38;;;;;;;3.12;77.81;101008.56;7394560;19;20021;-69
2023/12/08 10:50:57;;;;;;;14.95;10.32;;;;;;;3.06;77.94;101014.06;7391767;19;20504;-69
2023/12/08 10:53:26;;;;;;;15.93;10.38;;;;;;;3.14;78.40;101004.16;7395559;19;20018;-69
2023/12/08 10:56:03;;;;;;;22.55;14.68;;;;;;;3.24;77.91;101012.47;7394791;19;20029;-69
2023/12/08 10:58:33;;;;;;;20.52;12.45;;;;;;;3.32;77.49;101004.31;7395135;19;20022;-69
2023/12/08 11:01:06;;;;;;;19.63;12.55;;;;;;;3.34;77.41;100999.91;7391183;19;20026;-69
2023/12/08 11:03:36;;;;;;;17.20;9.95;;;;;;;3.22;77.62;100993.38;7393486;19;20022;-69
2023/12/08 11:06:07;;;;;;;17.40;11.38;;;;;;;3.23;77.90;100999.47;7396162;19;20019;-69
2023/12/08 11:08:37;;;;;;;16.55;10.35;;;;;;;3.22;77.84;100979.44;7397708;19;20365;-69
2023/12/08 11:11:06;;;;;;;16.83;10.10;;;;;;;3.25;77.68;100982.81;7391678;19;20037;-69
2023/12/08 11:13:39;;;;;;;17.83;10.63;;;;;;;3.24;77.76;100986.31;7393712;19;20011;-69
2023/12/08 11:16:16;;;;;;;19.38;11.10;;;;;;;3.24;77.48;100956.66;7392122;19;20019;-58
2023/12/08 11:18:48;;;;;;;17.25;10.55;;;;;;;3.30;77.55;100978.22;7392164;19;20019;-59
2023/12/08 11:21:18;;;;;;;16.85;10.48;;;;;;;3.26;77.44;100986.25;7390230;19;20102;-59
2023/12/08 11:23:46;;;;;;;17.00;10.10;;;;;;;3.22;77.56;100966.38;7391169;19;20018;-59
2023/12/08 11:26:34;;;;;;;16.45;10.45;;;;;;;3.40;77.07;100963.00;7392582;19;20438;-59
2023/12/08 11:29:21;;;;;;;15.68;9.80;;;;;;;3.36;77.04;100958.81;7392437;19;20018;-58
2023/12/08 11:32:17;;;;;;;16.88;9.90;;;;;;;3.34;77.48;100955.41;7392421;19;20039;-59